createdAt,value
2022-12-05T00:01:29.458Z,99026.59
2022-12-05T00:04:15.400Z,99237.22
2022-12-05T00:07:01.395Z,99200.47
2022-12-05T00:09:47.277Z,99283.28
2022-12-05T00:12:33.390Z,99206.13
2022-12-05T00:15:18.600Z,99266.53
2022-12-05T00:18:04.664Z,99247.06
2022-12-05T00:20:53.131Z,99256.81
2022-12-05T00:23:39.133Z,99079.47
2022-12-05T00:26:26.046Z,99257.31
2022-12-05T00:29:12.582Z,99093.44
2022-12-05T00:31:58.184Z,99256.94
2022-12-05T00:34:43.582Z,99201.63
2022-12-05T00:37:29.309Z,99260.66
2022-12-05T00:40:15.398Z,99063.38
2022-12-05T00:43:00.672Z,99257.88
2022-12-05T00:45:45.990Z,99208.59
2022-12-05T00:48:33.305Z,99264.06
2022-12-05T00:51:28.430Z,99259.56
2022-12-05T00:54:16.927Z,99229.19
2022-12-05T00:57:02.570Z,99262.56
2022-12-05T00:59:49.244Z,99236.91
2022-12-05T01:02:36.160Z,99251.19
2022-12-05T01:05:22.236Z,99255.63
2022-12-05T01:08:07.852Z,99245.41
2022-12-05T01:10:55.708Z,99276.84
2022-12-05T01:13:42.288Z,99274.13
2022-12-05T01:16:34.379Z,99252.09
2022-12-05T01:19:29.139Z,99223.38
2022-12-05T01:22:14.623Z,99239.69
2022-12-05T01:24:59.975Z,99239.94
2022-12-05T01:27:47.287Z,99222.63
2022-12-05T01:30:37.534Z,99235.69
2022-12-05T01:33:24.553Z,99210.28
2022-12-05T01:36:12.776Z,99200.69
2022-12-05T01:38:59.164Z,99239.69
2022-12-05T01:41:48.301Z,99229.56
2022-12-05T01:44:33.767Z,99236.50
2022-12-05T01:47:20.004Z,99211.19
2022-12-05T01:50:06.422Z,99025.66
2022-12-05T01:52:51.974Z,99221.69
2022-12-05T01:55:38.689Z,99222.44
2022-12-05T01:58:29.514Z,99239.31
2022-12-05T02:01:18.659Z,99238.66
2022-12-05T02:04:06.114Z,99213.09
2022-12-05T02:06:51.775Z,99171.94
2022-12-05T02:09:38.669Z,99241.59
2022-12-05T02:12:25.160Z,99240.06
2022-12-05T02:15:25.121Z,99115.28
2022-12-05T02:18:21.393Z,99091.31
2022-12-05T02:21:25.670Z,99231.91
2022-12-05T02:24:26.739Z,99189.06
2022-12-05T02:27:46.847Z,99058.31
2022-12-05T02:30:45.473Z,99242.34
2022-12-05T02:33:50.642Z,99204.25
2022-12-05T02:36:48.890Z,99198.47
2022-12-05T02:40:00.134Z,99229.19
2022-12-05T02:43:00.421Z,99176.72
2022-12-05T02:45:52.739Z,99225.25
2022-12-05T02:48:42.972Z,99229.19
2022-12-05T02:51:34.896Z,99247.25
2022-12-05T02:54:24.649Z,99259.78
2022-12-05T02:57:12.750Z,99208.03
2022-12-05T02:59:58.539Z,99180.47
2022-12-05T03:02:44.641Z,99157.97
2022-12-05T03:05:51.526Z,99223.59
2022-12-05T03:08:49.214Z,99101.22
2022-12-05T03:11:41.234Z,99217.03
2022-12-05T03:14:32.203Z,99261.13
2022-12-05T03:17:24.116Z,99233.72
2022-12-05T03:20:19.659Z,99247.53
2022-12-05T03:23:31.695Z,99233.50
2022-12-05T03:27:04.552Z,99242.44
2022-12-05T03:29:56.455Z,99228.56
2022-12-05T03:33:15.465Z,99229.78
2022-12-05T03:36:16.041Z,99232.03
2022-12-05T03:39:16.437Z,99229.78
2022-12-05T03:42:12.226Z,99252.69
2022-12-05T03:45:02.841Z,99237.47
2022-12-05T03:47:58.798Z,99230.31
2022-12-05T03:50:49.465Z,99201.91
2022-12-05T03:53:47.675Z,99203.53
2022-12-05T03:56:44.141Z,99223.38
2022-12-05T03:59:51.831Z,99055.91
2022-12-05T04:02:48.032Z,99244.81
2022-12-05T04:05:49.573Z,99032.09
2022-12-05T04:08:47.404Z,99194.53
2022-12-05T04:11:37.070Z,99219.06
2022-12-05T04:14:29.943Z,99228.56
2022-12-05T04:17:31.055Z,99224.63
2022-12-05T04:20:43.819Z,99203.53
2022-12-05T04:23:29.290Z,99041.56
2022-12-05T04:26:28.239Z,99208.19
2022-12-05T04:29:26.265Z,99174.94
2022-12-05T04:32:14.576Z,99241.59
2022-12-05T04:35:07.119Z,99203.41
2022-12-05T04:37:58.806Z,99204.84
2022-12-05T04:40:56.789Z,99214.03
2022-12-05T04:43:46.008Z,99229.97
2022-12-05T04:46:38.568Z,99197.94
2022-12-05T04:49:30.290Z,98997.91
2022-12-05T04:52:16.248Z,99214.97
2022-12-05T04:55:20.598Z,99204.28
2022-12-05T04:58:08.233Z,99228.47
2022-12-05T05:01:28.199Z,99232.41
2022-12-05T05:04:27.429Z,99226.97
2022-12-05T05:07:14.718Z,99256.06
2022-12-05T05:10:01.843Z,99229.69
2022-12-05T05:12:47.973Z,99239.38
2022-12-05T05:15:33.543Z,99221.53
2022-12-05T05:18:19.612Z,99231.28
2022-12-05T05:21:07.970Z,99246.56
2022-12-05T05:23:57.324Z,99214.81
2022-12-05T05:26:45.191Z,99236.16
2022-12-05T05:29:31.720Z,99254.00
2022-12-05T05:32:17.774Z,99247.44
2022-12-05T05:35:03.414Z,99222.50
2022-12-05T05:37:48.934Z,99024.78
2022-12-05T05:40:37.674Z,99228.28
2022-12-05T05:43:28.326Z,99219.28
2022-12-05T05:46:17.068Z,99216.31
2022-12-05T05:49:03.770Z,99210.09
2022-12-05T05:51:49.234Z,99211.41
2022-12-05T05:54:36.537Z,99236.66
2022-12-05T05:57:22.106Z,99264.22
2022-12-05T06:00:09.906Z,99226.59
2022-12-05T06:02:55.868Z,99212.06
2022-12-05T06:05:42.155Z,99224.00
2022-12-05T06:08:30.570Z,99223.34
2022-12-05T06:11:26.173Z,99220.63
2022-12-05T06:14:25.053Z,99238.44
2022-12-05T06:17:35.928Z,99252.88
2022-12-05T06:20:26.536Z,99240.97
2022-12-05T06:23:12.203Z,99237.84
2022-12-05T06:26:32.193Z,99261.38
2022-12-05T06:29:34.089Z,99057.75
2022-12-05T06:32:20.262Z,99110.78
2022-12-05T06:35:16.581Z,99233.00
2022-12-05T06:38:04.129Z,99264.41
2022-12-05T06:40:51.548Z,99138.88
2022-12-05T06:43:37.614Z,99306.72
2022-12-05T06:46:25.971Z,99263.19
2022-12-05T06:49:11.844Z,99097.66
2022-12-05T06:51:57.359Z,99275.84
2022-12-05T06:54:43.074Z,99258.41
2022-12-05T06:57:29.146Z,99308.78
2022-12-05T07:00:34.493Z,99253.22
2022-12-05T07:03:20.115Z,99269.16
2022-12-05T07:06:07.338Z,99278.19
2022-12-05T07:08:54.749Z,99240.41
2022-12-05T07:11:42.667Z,99231.41
2022-12-05T07:17:38.003Z,99270.13
2022-12-05T07:20:23.955Z,99282.50
2022-12-05T07:23:10.374Z,99297.97
2022-12-05T07:25:57.967Z,99254.19
2022-12-05T07:28:43.876Z,99287.38
2022-12-05T07:31:31.760Z,99255.41
2022-12-05T07:34:18.348Z,99236.84
2022-12-05T07:37:07.814Z,99258.41
2022-12-05T07:39:54.977Z,99241.03
2022-12-05T07:42:40.896Z,99246.31
2022-12-05T07:45:27.600Z,99263.75
2022-12-05T07:48:18.179Z,99243.50
2022-12-05T07:51:06.613Z,99262.06
2022-12-05T07:53:52.396Z,99270.88
2022-12-05T07:56:40.913Z,99278.09
2022-12-05T07:59:28.497Z,99098.88
2022-12-05T08:02:14.799Z,99230.44
2022-12-05T08:05:00.838Z,99265.25
2022-12-05T08:07:46.470Z,99265.25
2022-12-05T08:11:30.339Z,99262.22
2022-12-05T08:14:22.177Z,99267.28
2022-12-05T08:17:18.501Z,99267.28
2022-12-05T08:20:10.965Z,99191.94
2022-12-05T08:22:58.892Z,99264.28
2022-12-05T08:25:45.476Z,99244.81
2022-12-05T08:28:32.389Z,99264.84
2022-12-05T08:31:21.887Z,99267.84
2022-12-05T08:34:12.883Z,99273.28
2022-12-05T08:36:59.784Z,99270.84
2022-12-05T08:39:46.570Z,99267.16
2022-12-05T08:42:32.914Z,99230.91
2022-12-05T08:45:21.110Z,99260.50
2022-12-05T08:48:07.439Z,99107.59
2022-12-05T08:50:54.700Z,99294.09
2022-12-05T08:53:44.413Z,99262.94
2022-12-05T08:56:31.133Z,99245.91
2022-12-05T08:59:16.531Z,99204.25
2022-12-05T09:02:02.362Z,99251.56
2022-12-05T09:04:54.101Z,99210.16
2022-12-05T09:07:39.924Z,99244.91
2022-12-05T09:10:26.530Z,99044.56
2022-12-05T09:13:14.179Z,99246.41
2022-12-05T09:16:06.076Z,99227.84
2022-12-05T09:18:52.600Z,99243.19
2022-12-05T09:21:38.225Z,99068.59
2022-12-05T09:24:24.877Z,99233.63
2022-12-05T09:27:10.951Z,99222.56
2022-12-05T09:29:56.817Z,99223.13
2022-12-05T09:32:42.089Z,99177.41
2022-12-05T09:35:27.732Z,99052.59
2022-12-05T09:38:13.409Z,99229.66
2022-12-05T09:41:50.157Z,99227.22
2022-12-05T09:45:18.721Z,99229.19
2022-12-05T09:48:14.020Z,99196.16
2022-12-05T09:51:03.625Z,99220.13
2022-12-05T09:53:49.658Z,99019.53
2022-12-05T09:56:35.356Z,99130.50
2022-12-05T09:59:21.722Z,99216.72
2022-12-05T10:02:28.738Z,99253.50
2022-12-05T10:05:40.640Z,99230.22
2022-12-05T10:08:33.443Z,99240.00
2022-12-05T10:11:36.545Z,99045.94
2022-12-05T10:15:02.636Z,99219.50
2022-12-05T10:18:03.708Z,99009.81
2022-12-05T10:21:00.423Z,99109.41
2022-12-05T10:23:57.509Z,99014.31
2022-12-05T10:26:46.398Z,99142.75
2022-12-05T10:30:03.412Z,99243.94
2022-12-05T10:32:58.422Z,99090.22
2022-12-05T10:35:43.963Z,99216.84
2022-12-05T10:38:31.264Z,99209.97
2022-12-05T10:41:17.531Z,99004.00
2022-12-05T10:44:05.012Z,99035.06
2022-12-05T10:46:52.009Z,99203.78
2022-12-05T10:49:39.096Z,99185.81
2022-12-05T10:52:25.135Z,99032.63
2022-12-05T10:55:17.678Z,99201.59
2022-12-05T10:58:25.226Z,99200.38
2022-12-05T11:01:16.785Z,99189.25
2022-12-05T11:04:22.189Z,99185.00
2022-12-05T11:07:08.235Z,99151.09
2022-12-05T11:09:54.239Z,99182.53
2022-12-05T11:12:40.243Z,99184.06
2022-12-05T11:15:31.657Z,99153.69
2022-12-05T11:18:27.302Z,98977.28
2022-12-05T11:21:15.084Z,99177.66
2022-12-05T11:24:21.888Z,98932.13
2022-12-05T11:27:16.897Z,99170.72
2022-12-05T11:30:09.911Z,99166.03
2022-12-05T11:33:18.425Z,99111.63
2022-12-05T11:36:29.982Z,99162.84
2022-12-05T11:39:15.720Z,99116.41
2022-12-05T11:42:15.854Z,99186.66
2022-12-05T11:45:13.048Z,99197.53
2022-12-05T11:48:04.576Z,99144.03
2022-12-05T11:51:21.863Z,99091.63
2022-12-05T11:55:03.857Z,99144.78
2022-12-05T11:57:52.522Z,98939.53
2022-12-05T12:01:28.890Z,99130.88
2022-12-05T12:04:32.990Z,98963.63
2022-12-05T12:07:21.693Z,99129.19
2022-12-05T12:10:42.083Z,99034.75
2022-12-05T12:14:05.887Z,99117.38
2022-12-05T12:17:05.890Z,98919.84
2022-12-05T12:20:03.737Z,99119.81
2022-12-05T12:23:14.303Z,99115.31
2022-12-05T12:26:14.768Z,98913.13
2022-12-05T12:29:10.741Z,99138.59
2022-12-05T12:31:59.453Z,99147.03
2022-12-05T12:35:17.793Z,99106.47
2022-12-05T12:38:51.004Z,99109.91
2022-12-05T12:41:57.178Z,99102.72
2022-12-05T12:45:04.291Z,99097.00
2022-12-05T12:48:07.995Z,99097.50
2022-12-05T12:50:55.394Z,99069.72
2022-12-05T12:54:06.676Z,98962.69
2022-12-05T12:57:13.874Z,98886.59
2022-12-05T13:00:29.870Z,99095.31
2022-12-05T13:03:36.522Z,99117.66
2022-12-05T13:06:34.092Z,98947.56
2022-12-05T13:09:39.319Z,99107.69
2022-12-05T13:12:29.509Z,99116.13
2022-12-05T13:15:20.005Z,99101.72
2022-12-05T13:18:10.804Z,98948.13
2022-12-05T13:20:59.859Z,99116.41
2022-12-05T13:23:55.942Z,99099.41
2022-12-05T13:26:48.722Z,99091.47
2022-12-05T13:29:40.578Z,99090.53
2022-12-05T13:32:38.249Z,99083.88
2022-12-05T13:35:53.130Z,99089.03
2022-12-05T13:38:59.910Z,99084.97
2022-12-05T13:42:16.124Z,98966.06
2022-12-05T13:45:05.011Z,99035.56
2022-12-05T13:48:03.358Z,99113.13
2022-12-05T13:51:08.054Z,99076.00
2022-12-05T13:54:18.196Z,99099.25
2022-12-05T13:57:05.231Z,99061.75
2022-12-05T14:00:10.181Z,99076.19
2022-12-05T14:03:04.844Z,98868.31
2022-12-05T14:05:53.356Z,99065.50
2022-12-05T14:08:39.651Z,98904.91
2022-12-05T14:11:26.272Z,99066.72
2022-12-05T14:14:12.202Z,99034.81
2022-12-05T14:17:03.016Z,99058.44
2022-12-05T14:20:16.113Z,99061.75
2022-12-05T14:23:01.790Z,98999.66
2022-12-05T14:26:08.553Z,99063.03
2022-12-05T14:29:22.729Z,99059.09
2022-12-05T14:32:37.664Z,99072.47
2022-12-05T14:35:40.501Z,99067.03
2022-12-05T14:38:36.293Z,99066.25
2022-12-05T14:41:37.115Z,99073.94
2022-12-05T14:44:24.594Z,99063.03
2022-12-05T14:47:21.535Z,98958.31
2022-12-05T14:50:41.027Z,99069.06
2022-12-05T14:53:43.139Z,99048.66
2022-12-05T14:56:29.527Z,98997.75
2022-12-05T14:59:33.397Z,99060.59
2022-12-05T15:02:24.934Z,99066.53
2022-12-05T15:05:34.140Z,99067.03
2022-12-05T15:08:21.882Z,99055.31
2022-12-05T15:11:07.710Z,99057.06
2022-12-05T15:14:15.642Z,99016.69
2022-12-05T15:17:04.843Z,99063.47
2022-12-05T15:20:03.969Z,98970.28
2022-12-05T15:22:51.670Z,98993.69
2022-12-05T15:25:38.093Z,99009.97
2022-12-05T15:28:23.930Z,98880.00
2022-12-05T15:31:13.831Z,99055.56
2022-12-05T15:34:15.763Z,98871.59
2022-12-05T15:37:34.916Z,99064.00
2022-12-05T15:40:23.856Z,99062.25
2022-12-05T15:43:26.410Z,99064.97
2022-12-05T15:46:27.711Z,98988.91
2022-12-05T15:49:23.564Z,98895.25
2022-12-05T15:52:38.893Z,99063.47
2022-12-05T15:55:37.033Z,99063.94
2022-12-05T15:58:42.169Z,99048.38
2022-12-05T16:01:31.479Z,98977.78
2022-12-05T16:04:22.664Z,99049.59
2022-12-05T16:07:15.057Z,98855.53
2022-12-05T16:10:02.455Z,98993.41
2022-12-05T16:12:50.969Z,99000.75
2022-12-05T16:15:37.261Z,99039.38
2022-12-05T16:18:30.707Z,98698.03
2022-12-05T16:21:34.429Z,99032.72
2022-12-05T16:24:54.163Z,98986.34
2022-12-05T16:27:44.560Z,98842.03
2022-12-05T16:30:32.487Z,99021.84
2022-12-05T16:33:28.407Z,99047.69
2022-12-05T16:36:15.909Z,99028.50
2022-12-05T16:39:05.681Z,99024.00
2022-12-05T16:41:52.440Z,99021.56
2022-12-05T16:44:47.775Z,99028.78
2022-12-05T16:47:46.887Z,99019.38
2022-12-05T16:50:37.587Z,99003.50
2022-12-05T16:53:32.983Z,99030.69
2022-12-05T16:56:24.555Z,98799.19
2022-12-05T16:59:22.918Z,98998.31
2022-12-05T17:02:17.773Z,98998.84
2022-12-05T17:05:13.741Z,99007.75
2022-12-05T17:07:59.680Z,98997.31
2022-12-05T17:10:47.568Z,98847.44
2022-12-05T17:13:33.902Z,98965.94
2022-12-05T17:16:31.200Z,98972.88
2022-12-05T17:19:18.989Z,99011.50
2022-12-05T17:22:06.512Z,98891.44
2022-12-05T17:24:52.418Z,98945.53
2022-12-05T17:27:38.455Z,99005.66
2022-12-05T17:30:24.834Z,99003.63
2022-12-05T17:33:12.765Z,98818.50
2022-12-05T17:35:58.576Z,98944.47
2022-12-05T17:38:44.367Z,98969.97
2022-12-05T17:41:30.281Z,98961.19
2022-12-05T17:44:15.914Z,99011.50
2022-12-05T17:47:07.802Z,99021.16
2022-12-05T17:49:54.901Z,99007.56
2022-12-05T17:52:41.384Z,98922.84
2022-12-05T17:55:29.372Z,98991.63
2022-12-05T17:58:16.746Z,98994.22
2022-12-05T18:01:02.983Z,98946.38
2022-12-05T18:03:49.281Z,98997.66
2022-12-05T18:06:35.659Z,99020.19
2022-12-05T18:09:21.698Z,98929.50
2022-12-05T18:12:07.321Z,99016.19
2022-12-05T18:19:36.905Z,98979.13
2022-12-05T18:22:23.890Z,98923.53
2022-12-05T18:25:11.380Z,98988.97
2022-12-05T18:27:56.992Z,98939.97
2022-12-05T18:30:44.044Z,98973.41
2022-12-05T18:33:29.981Z,98921.34
2022-12-05T18:36:21.793Z,98893.06
2022-12-05T18:39:07.621Z,98754.69
2022-12-05T18:41:53.031Z,98962.28
2022-12-05T18:44:38.494Z,98903.72
2022-12-05T18:47:25.332Z,98940.94
2022-12-05T18:50:32.612Z,98975.97
2022-12-05T18:53:20.601Z,98808.09
2022-12-05T18:56:25.003Z,98792.16
2022-12-05T18:59:16.483Z,98845.00
2022-12-05T19:02:02.593Z,98772.53
2022-12-05T19:04:49.968Z,98979.47
2022-12-05T19:07:36.065Z,98798.00
2022-12-05T19:10:22.069Z,98765.94
2022-12-05T19:13:09.535Z,98958.41
2022-12-05T19:16:09.260Z,98890.47
2022-12-05T19:19:03.338Z,98953.75
2022-12-05T19:21:49.290Z,98968.59
2022-12-05T19:24:37.131Z,98954.50
2022-12-05T19:27:23.902Z,98816.53
2022-12-05T19:30:12.264Z,98966.44
2022-12-05T19:32:57.927Z,98953.75
2022-12-05T19:35:43.350Z,98741.63
2022-12-05T19:38:36.657Z,98965.44
2022-12-05T19:41:25.512Z,98751.16
2022-12-05T19:44:14.998Z,98958.78
2022-12-05T19:47:01.444Z,98949.41
2022-12-05T19:49:50.050Z,98943.19
2022-12-05T19:52:41.220Z,98951.84
2022-12-05T19:55:27.289Z,98950.34
2022-12-05T19:58:15.682Z,98931.38
2022-12-05T20:01:15.117Z,98939.47
2022-12-05T20:04:12.559Z,98773.19
2022-12-05T20:06:58.133Z,98850.78
2022-12-05T20:09:44.264Z,98910.34
2022-12-05T20:12:29.830Z,98860.84
2022-12-05T20:15:15.521Z,98961.31
2022-12-05T20:18:03.627Z,98935.22
2022-12-05T20:21:00.533Z,98805.34
2022-12-05T20:23:46.946Z,98789.56
2022-12-05T20:26:38.430Z,98932.53
2022-12-05T20:29:23.989Z,98852.56
2022-12-05T20:32:10.159Z,98932.75
2022-12-05T20:34:55.876Z,98882.31
2022-12-05T20:37:41.749Z,98730.38
2022-12-05T20:40:27.259Z,98935.13
2022-12-05T20:43:12.832Z,98935.22
2022-12-05T20:46:06.198Z,98719.50
2022-12-05T20:48:54.161Z,98879.69
2022-12-05T20:51:42.878Z,98868.28
2022-12-05T20:54:28.508Z,98844.41
2022-12-05T20:57:15.074Z,98934.72
2022-12-05T21:00:01.331Z,98924.84
2022-12-05T21:02:47.741Z,98921.66
2022-12-05T21:05:37.840Z,98920.41
2022-12-05T21:08:24.001Z,98913.00
2022-12-05T21:11:10.918Z,98831.06
2022-12-05T21:14:01.245Z,98919.69
2022-12-05T21:16:48.469Z,98864.34
2022-12-05T21:19:34.309Z,98831.13
2022-12-05T21:22:19.931Z,98675.41
2022-12-05T21:25:05.460Z,98700.09
2022-12-05T21:28:46.935Z,98893.47
2022-12-05T21:34:42.132Z,98783.72
2022-12-05T21:37:28.183Z,98664.66
2022-12-05T21:40:13.993Z,98847.72
2022-12-05T21:42:59.844Z,98699.72
2022-12-05T21:45:50.266Z,98850.94
2022-12-05T21:48:38.499Z,98908.03
2022-12-05T21:51:24.533Z,98836.28
2022-12-05T21:58:40.663Z,98706.97
2022-12-05T22:01:28.703Z,98875.38
2022-12-05T22:04:14.680Z,98830.22
2022-12-05T22:07:00.486Z,98794.81
2022-12-05T22:09:45.927Z,98822.44
2022-12-05T22:12:34.653Z,98869.16
2022-12-05T22:15:20.461Z,98829.38
2022-12-05T22:18:07.096Z,98757.28
2022-12-05T22:21:04.351Z,98686.47
2022-12-05T22:23:50.263Z,98617.19
2022-12-05T22:26:35.642Z,98861.78
2022-12-05T22:29:21.685Z,98826.03
2022-12-05T22:32:07.237Z,98823.81
2022-12-05T22:34:53.341Z,98829.31
2022-12-05T22:37:39.174Z,98805.22
2022-12-05T22:40:24.705Z,98764.94
2022-12-05T22:43:10.138Z,98802.88
2022-12-05T22:45:56.228Z,98606.31
2022-12-05T22:48:41.712Z,98618.22
2022-12-05T22:51:29.553Z,98792.19
2022-12-05T22:54:15.337Z,98618.88
2022-12-05T22:57:01.722Z,98159.44
2022-12-05T22:59:47.334Z,98809.72
2022-12-05T23:02:33.016Z,98535.16
2022-12-05T23:05:18.912Z,98597.06
2022-12-05T23:08:04.650Z,98791.72
2022-12-05T23:10:49.867Z,98809.28
2022-12-05T23:13:36.062Z,98598.97
2022-12-05T23:16:26.112Z,98649.22
2022-12-05T23:19:11.322Z,98605.03
2022-12-05T23:21:56.719Z,98781.13
2022-12-05T23:24:42.027Z,98798.03
2022-12-05T23:27:27.432Z,98621.00
2022-12-05T23:30:13.543Z,98787.66
2022-12-05T23:32:58.977Z,98564.13
2022-12-05T23:35:44.468Z,98702.81
2022-12-05T23:38:30.155Z,98766.25
2022-12-05T23:41:21.506Z,98589.56
2022-12-05T23:44:06.863Z,98738.50
2022-12-05T23:46:52.735Z,98738.69
2022-12-05T23:49:38.116Z,98781.44
2022-12-05T23:52:23.607Z,98708.66
2022-12-05T23:55:09.361Z,98593.84
2022-12-05T23:57:55.079Z,98560.09
